This is the latest recevied weather packets stored in our database for station/object KB9HGI-1. If no packets are shown the sender has not sent any weather packets the latest 10 day(s).
| Time | Temp. | Humidity | Pressure | Rain* | Wind** | Luminosity | Snow |
|---|---|---|---|---|---|---|---|
| 1777821023 | 16.11° C | 55% | 1011.9 hPa | 0 mm | - | 585 W/m² | - |
| 1777814416 | 12.78° C | 63% | 1012.5 hPa | 0 mm | - | 387 W/m² | - |
| 1777810781 | 10.56° C | 66% | 1013.5 hPa | 0 mm | - | 176 W/m² | - |
| 1777810150 | 10° C | 67% | 1013.5 hPa | 0 mm | - | 156 W/m² | - |
| 1777803543 | 8.33° C | 74% | 1013.5 hPa | 0 mm | - | 0 W/m² | - |
| 1777802942 | 8.33° C | 74% | 1013.5 hPa | 0 mm | - | 0 W/m² | - |
| 1777798138 | 8.33° C | 74% | 1013.9 hPa | 0 mm | - | 0 W/m² | - |
| 1777795704 | 8.33° C | 74% | 1014.2 hPa | 0 mm | - | 0 W/m² | - |
| 1777795042 | 8.33° C | 73% | 1014.2 hPa | 0 mm | - | 0 W/m² | - |
| 1777785938 | 10° C | 66% | 1015.2 hPa | 0 mm | - | 0 W/m² | - |
| 1777784706 | 10° C | 64% | 1015.6 hPa | 0 mm | - | 0 W/m² | - |
| 1777777374 | 10.56° C | 63% | 1016.3 hPa | 0 mm | - | 0 W/m² | - |
| 1777768303 | 16.11° C | 40% | 1015.6 hPa | 0 mm | - | 42 W/m² | - |
| 1777762234 | 16.67° C | 38% | 1015.9 hPa | 0 mm | - | 394 W/m² | - |
| 1777745942 | 15° C | 46% | 1017.9 hPa | 0 mm | - | 1281 W/m² | - |
| 1777742877 | 14.44° C | 44% | 1018.3 hPa | 0 mm | - | 1049 W/m² | - |
| 1777737440 | 13.33° C | 60% | 1018.6 hPa | 0 mm | - | 879 W/m² | - |
| 1777732572 | 12.22° C | 74% | 1018.3 hPa | 0 mm | - | 691 W/m² | - |
| 1777724608 | 6.67° C | 93% | 1017.6 hPa | 0 mm | - | 63 W/m² | - |
| 1777722205 | 6.11° C | 93% | 1016.9 hPa | 0 mm | - | 19 W/m² | - |
| 1777718508 | 5.56° C | 92% | 1016.6 hPa | 0 mm | - | 0 W/m² | - |
| 1777717907 | 5.56° C | 92% | 1016.6 hPa | 0 mm | - | 0 W/m² | - |
| 1777717276 | 5.56° C | 92% | 1016.6 hPa | 0 mm | - | 0 W/m² | - |
| 1777713672 | 6.11° C | 91% | 1016.3 hPa | 0 mm | - | 0 W/m² | - |
| 1777713071 | 6.11° C | 91% | 1016.3 hPa | 0 mm | - | 0 W/m² | - |
* Rain latest hour (hover to see other rain measurements)
** Current wind speed in m/s (hover to see current wind gust speed)